Balneario Camboriu, Brazil
Current Conditions -  °F | °C
As of 12:00 AM on Monday 24 Nov 2014 (Local Time) from SBNF Reporting Station
Broken Clouds Broken Clouds  
Wind Chill: 75°   Ceiling: 3000
Heat Index: 75°   Visibility: 6mi
Dew Point: 63°   Wind: 10mph
Humidity: 65%   Direction: 120°ESE
Pressure: 30"   Gusts: NA
Location:  26.99°S, 48.63°W
Report Text: SBNF 240200Z 12009KT 9999 BKN030 24/17 Q1016
Loading
Personal Weather Stations






























Interactive Weather Map New forecast layout! Learn more

10-Day Weather Forecast

Advertisements
Track Severe Weather on mobile